Time;durP1;ratioP1;P1;durP2;ratioP2;P2;SDS_P1;SDS_P2;PMS_P1;PMS_P2;Temp;Humidity;BMP_temperature;BMP_pressure;BME280_temperature;BME280_humidity;BME280_pressure;Samples;Min_cycle;Max_cycle;Signal;HPM_P1;HPM_P2
2022/08/06 00:02:13;;;;;;;1.93;1.53;;;18.00;99.90;;;;;;5099186;28;20492;-59
2022/08/06 00:04:41;;;;;;;1.50;1.33;;;18.00;99.90;;;;;;5098752;28;20916;-55
2022/08/06 00:07:08;;;;;;;1.77;1.33;;;18.00;99.90;;;;;;5098913;28;20778;-57
2022/08/06 00:09:35;;;;;;;2.40;1.80;;;18.00;99.90;;;;;;5098552;28;20549;-50
2022/08/06 00:12:03;;;;;;;1.30;1.20;;;17.90;99.90;;;;;;5097147;28;20485;-49
2022/08/06 00:14:31;;;;;;;2.10;1.30;;;17.90;99.90;;;;;;5097327;28;20445;-52
2022/08/06 00:16:58;;;;;;;1.10;0.90;;;17.80;99.90;;;;;;5097090;28;20469;-50
2022/08/06 00:19:25;;;;;;;1.30;1.20;;;17.70;99.90;;;;;;5097378;28;20456;-56
2022/08/06 00:21:54;;;;;;;1.20;1.10;;;17.70;99.90;;;;;;5097031;28;20445;-54
2022/08/06 00:24:21;;;;;;;2.23;1.17;;;17.60;99.90;;;;;;5096646;28;20461;-53
2022/08/06 00:26:48;;;;;;;1.60;1.17;;;17.60;99.90;;;;;;5097266;28;20451;-51
2022/08/06 00:29:15;;;;;;;4.60;1.57;;;17.50;99.90;;;;;;5096582;28;20450;-55
2022/08/06 00:31:42;;;;;;;3.77;1.30;;;17.50;99.90;;;;;;5096789;28;20492;-51
2022/08/06 00:34:08;;;;;;;1.43;1.00;;;17.50;99.90;;;;;;5096558;28;20913;-54
2022/08/06 00:36:36;;;;;;;1.70;1.00;;;17.50;99.90;;;;;;5096626;28;20921;-56
2022/08/06 00:39:06;;;;;;;2.50;1.20;;;17.50;99.90;;;;;;5096992;28;20434;-53
2022/08/06 00:41:40;;;;;;;6.20;0.90;;;17.60;99.90;;;;;;5096475;28;20464;-56
2022/08/06 00:44:07;;;;;;;1.97;1.10;;;17.50;99.90;;;;;;5096814;28;20528;-51
2022/08/06 00:46:34;;;;;;;2.27;1.20;;;17.50;99.90;;;;;;5096843;28;20438;-55
2022/08/06 00:49:01;;;;;;;1.47;1.00;;;17.40;99.90;;;;;;5096219;28;20472;-53
2022/08/06 00:51:28;;;;;;;1.40;1.10;;;17.40;99.90;;;;;;5096446;28;20982;-54
2022/08/06 00:53:54;;;;;;;1.37;1.10;;;17.30;99.90;;;;;;5096960;28;20512;-52
2022/08/06 00:56:23;;;;;;;4.87;1.60;;;17.30;99.90;;;;;;5098681;28;20753;-53
2022/08/06 00:58:49;;;;;;;1.67;1.03;;;17.30;99.90;;;;;;5096892;28;20548;-52
2022/08/06 01:01:16;;;;;;;2.90;1.20;;;17.30;99.90;;;;;;5095775;28;20433;-50
2022/08/06 01:03:44;;;;;;;1.23;0.93;;;17.30;99.90;;;;;;5096202;28;20511;-54
2022/08/06 01:06:11;;;;;;;1.30;1.00;;;17.30;99.90;;;;;;5096184;28;20480;-51
2022/08/06 01:08:38;;;;;;;1.30;0.90;;;17.20;99.90;;;;;;5096272;28;20520;-52
2022/08/06 01:11:05;;;;;;;1.43;0.90;;;17.20;99.90;;;;;;5096543;28;20990;-53
2022/08/06 01:13:33;;;;;;;1.13;0.80;;;17.20;99.90;;;;;;5096267;28;20518;-52
2022/08/06 01:16:08;;;;;;;8.20;1.20;;;17.10;99.90;;;;;;5097218;28;20449;-50
2022/08/06 01:18:41;;;;;;;1.20;1.00;;;17.20;99.90;;;;;;5096573;28;20773;-54
2022/08/06 01:21:18;;;;;;;2.70;1.00;;;17.10;99.90;;;;;;5096401;28;20544;-54
2022/08/06 01:24:00;;;;;;;1.20;0.90;;;17.10;99.90;;;;;;5096081;28;20544;-50
2022/08/06 01:26:36;;;;;;;1.10;0.80;;;17.00;99.90;;;;;;5096486;28;20567;-51
2022/08/06 01:29:09;;;;;;;1.40;1.00;;;16.90;99.90;;;;;;5096201;28;20437;-53
2022/08/06 01:31:44;;;;;;;3.03;1.10;;;16.90;99.90;;;;;;5095822;28;20466;-52
2022/08/06 01:34:17;;;;;;;4.13;1.30;;;16.80;99.90;;;;;;5095823;28;20862;-48
2022/08/06 01:36:50;;;;;;;2.80;1.47;;;16.80;99.90;;;;;;5096862;28;20449;-54
2022/08/06 01:39:19;;;;;;;2.40;1.30;;;16.70;99.90;;;;;;5096594;28;20902;-54
2022/08/06 01:41:50;;;;;;;1.30;0.90;;;16.70;99.90;;;;;;5097482;28;20433;-54
2022/08/06 01:44:21;;;;;;;1.87;1.30;;;16.60;99.90;;;;;;5096109;28;20487;-54
2022/08/06 01:47:01;;;;;;;1.00;0.80;;;16.60;99.90;;;;;;5096218;28;20429;-52
2022/08/06 01:49:30;;;;;;;2.70;1.10;;;16.60;99.90;;;;;;5095733;28;20438;-52
2022/08/06 01:52:00;;;;;;;1.87;1.40;;;16.60;99.90;;;;;;5106951;28;20486;-54
2022/08/06 01:54:31;;;;;;;2.70;0.80;;;16.60;99.90;;;;;;5098463;28;20445;-53
2022/08/06 01:57:00;;;;;;;3.40;1.10;;;16.50;99.90;;;;;;5096327;28;20545;-55
2022/08/06 01:59:33;;;;;;;1.83;0.90;;;16.50;99.90;;;;;;5095705;28;20553;-56
2022/08/06 02:02:02;;;;;;;1.50;1.20;;;16.50;99.90;;;;;;5095555;28;20437;-52
2022/08/06 02:04:35;;;;;;;1.30;1.00;;;16.60;99.90;;;;;;5095613;28;20446;-52
2022/08/06 02:07:06;;;;;;;2.27;1.20;;;16.50;99.90;;;;;;5096070;28;20513;-53
2022/08/06 02:09:35;;;;;;;1.13;0.80;;;16.40;99.90;;;;;;5095608;28;20497;-52
2022/08/06 02:12:05;;;;;;;1.20;1.00;;;16.40;99.90;;;;;;5094619;28;20967;-56
2022/08/06 02:14:37;;;;;;;4.33;0.90;;;16.50;99.90;;;;;;5095722;28;20950;-54
2022/08/06 02:17:05;;;;;;;1.23;0.90;;;16.40;99.90;;;;;;5095544;28;20861;-45
2022/08/06 02:19:34;;;;;;;5.60;1.00;;;16.30;99.90;;;;;;5095472;28;20487;-47
2022/08/06 02:22:03;;;;;;;4.80;1.10;;;16.30;99.90;;;;;;5095309;28;20463;-50
2022/08/06 02:24:32;;;;;;;2.77;1.00;;;16.40;99.90;;;;;;5095678;28;20898;-55
2022/08/06 02:27:01;;;;;;;2.03;1.10;;;16.30;99.90;;;;;;5096017;28;20430;-51
2022/08/06 02:29:28;;;;;;;2.43;0.90;;;16.30;99.90;;;;;;5096224;28;20469;-54
2022/08/06 02:31:57;;;;;;;1.20;1.00;;;16.30;99.90;;;;;;5095458;28;20485;-52
2022/08/06 02:34:24;;;;;;;1.93;1.17;;;16.20;99.90;;;;;;5096198;28;20441;-55
2022/08/06 02:36:57;;;;;;;1.40;0.93;;;16.20;99.90;;;;;;5096263;28;21090;-56
2022/08/06 02:39:27;;;;;;;1.40;0.90;;;16.20;99.90;;;;;;5095895;28;20496;-53
2022/08/06 02:42:02;;;;;;;2.00;1.67;;;16.20;99.90;;;;;;5095561;28;20450;-55
2022/08/06 02:44:40;;;;;;;1.37;0.90;;;16.30;99.90;;;;;;5096150;28;20480;-51
2022/08/06 02:47:12;;;;;;;1.27;0.83;;;16.20;99.90;;;;;;5096193;28;20449;-52
2022/08/06 02:49:43;;;;;;;1.47;0.90;;;16.20;99.90;;;;;;5095594;28;20433;-54
2022/08/06 02:52:16;;;;;;;5.77;1.13;;;16.20;99.90;;;;;;5096400;28;20576;-55
2022/08/06 02:54:47;;;;;;;1.50;0.90;;;16.10;99.90;;;;;;5096673;28;20746;-55
2022/08/06 02:57:21;;;;;;;1.47;0.90;;;16.10;99.90;;;;;;5096421;28;20817;-55
2022/08/06 02:59:53;;;;;;;1.40;1.10;;;16.10;99.90;;;;;;5095924;28;20468;-51
2022/08/06 03:02:24;;;;;;;1.70;1.03;;;16.10;99.90;;;;;;5095753;28;20470;-54
2022/08/06 03:04:53;;;;;;;2.20;0.80;;;16.10;99.90;;;;;;5096069;28;20475;-54
2022/08/06 03:07:21;;;;;;;2.07;1.00;;;16.10;99.90;;;;;;5095615;28;20438;-56
2022/08/06 03:09:49;;;;;;;1.00;0.80;;;16.00;99.90;;;;;;5095587;28;20448;-55
2022/08/06 03:12:18;;;;;;;1.50;1.10;;;16.00;99.90;;;;;;5095628;28;20538;-53
2022/08/06 03:14:47;;;;;;;1.63;1.50;;;16.10;99.90;;;;;;5095597;28;20946;-54
2022/08/06 03:17:15;;;;;;;1.50;1.23;;;16.00;99.90;;;;;;5095708;28;20472;-55
2022/08/06 03:19:45;;;;;;;1.20;0.90;;;16.00;99.90;;;;;;5095668;28;20457;-55
2022/08/06 03:22:13;;;;;;;1.67;0.90;;;15.90;99.90;;;;;;5095734;28;20531;-55
2022/08/06 03:24:42;;;;;;;1.33;1.03;;;15.90;99.90;;;;;;5099282;28;20554;-54
2022/08/06 03:27:11;;;;;;;1.20;0.83;;;15.90;99.90;;;;;;5100489;28;20453;-56
2022/08/06 03:29:39;;;;;;;1.20;0.93;;;15.90;99.90;;;;;;5101182;28;20477;-53
2022/08/06 03:32:07;;;;;;;1.73;0.90;;;15.90;99.90;;;;;;5100643;28;20539;-56
2022/08/06 03:34:36;;;;;;;1.60;1.00;;;15.90;99.90;;;;;;5101672;28;20445;-54
2022/08/06 03:37:06;;;;;;;1.40;0.90;;;15.80;99.90;;;;;;5099944;28;20489;-52
2022/08/06 03:39:33;;;;;;;2.80;0.90;;;15.80;99.90;;;;;;5100170;28;20533;-53
2022/08/06 03:42:00;;;;;;;1.37;1.00;;;15.80;99.90;;;;;;5099550;28;20565;-53
2022/08/06 03:44:27;;;;;;;1.10;0.80;;;15.70;99.90;;;;;;5099560;28;20522;-54
2022/08/06 03:46:58;;;;;;;1.37;0.80;;;15.60;99.90;;;;;;5099892;28;20561;-50
2022/08/06 03:49:30;;;;;;;2.00;1.07;;;15.70;99.90;;;;;;5099406;28;20444;-55
2022/08/06 03:51:59;;;;;;;1.30;0.80;;;15.60;99.90;;;;;;5099731;28;20519;-52
2022/08/06 03:54:31;;;;;;;1.30;0.80;;;15.60;99.90;;;;;;5099530;28;20458;-54
2022/08/06 03:57:04;;;;;;;3.13;0.97;;;15.60;99.90;;;;;;5099446;28;20437;-55
2022/08/06 03:59:33;;;;;;;1.20;1.00;;;15.60;99.90;;;;;;5099821;28;20493;-53
2022/08/06 04:02:01;;;;;;;1.67;0.87;;;15.60;99.90;;;;;;5101355;28;20480;-50
2022/08/06 04:04:31;;;;;;;1.80;1.40;;;15.60;99.90;;;;;;5101007;28;20448;-55
2022/08/06 04:07:00;;;;;;;3.03;1.00;;;15.70;99.90;;;;;;5099651;28;20497;-56
2022/08/06 04:09:30;;;;;;;4.03;1.20;;;15.70;99.90;;;;;;5099086;28;20506;-53
2022/08/06 04:12:04;;;;;;;1.97;1.10;;;15.70;99.90;;;;;;5099292;28;20488;-56
2022/08/06 04:14:32;;;;;;;1.27;0.97;;;15.70;99.90;;;;;;5099185;28;20441;-53
2022/08/06 04:17:01;;;;;;;1.20;1.00;;;15.70;99.90;;;;;;5098761;28;20541;-54
2022/08/06 04:19:30;;;;;;;1.13;0.80;;;15.70;99.90;;;;;;5098714;28;20461;-55
2022/08/06 04:21:57;;;;;;;1.67;1.20;;;15.80;99.90;;;;;;5098900;28;20446;-54
2022/08/06 04:24:24;;;;;;;3.60;1.43;;;15.80;99.90;;;;;;5098297;28;20944;-55
2022/08/06 04:26:54;;;;;;;1.10;1.00;;;15.80;99.90;;;;;;5098575;28;20437;-55
2022/08/06 04:29:22;;;;;;;1.30;1.20;;;15.90;99.90;;;;;;5096940;28;21041;-54
2022/08/06 04:31:51;;;;;;;1.60;1.20;;;15.90;99.90;;;;;;5097161;28;20980;-55
2022/08/06 04:34:24;;;;;;;1.10;0.83;;;15.90;99.90;;;;;;5097272;28;20442;-55
2022/08/06 04:36:52;;;;;;;2.90;1.30;;;15.90;99.90;;;;;;5095864;28;20983;-55
2022/08/06 04:39:19;;;;;;;1.20;0.93;;;16.00;99.90;;;;;;5096891;28;20445;-56
2022/08/06 04:41:47;;;;;;;1.40;1.20;;;16.00;99.90;;;;;;5096954;28;20429;-55
2022/08/06 04:44:15;;;;;;;2.40;1.00;;;16.00;99.90;;;;;;5096693;28;20437;-51
2022/08/06 04:46:48;;;;;;;3.60;0.90;;;16.10;99.90;;;;;;5096636;28;20484;-51
2022/08/06 04:49:15;;;;;;;2.07;0.90;;;16.00;99.90;;;;;;5096776;28;20477;-55
2022/08/06 04:51:42;;;;;;;1.40;1.00;;;16.10;99.90;;;;;;5096697;28;20492;-53
2022/08/06 04:54:09;;;;;;;2.00;1.23;;;16.10;99.90;;;;;;5096859;28;20483;-54
2022/08/06 04:56:35;;;;;;;1.90;1.13;;;16.20;99.90;;;;;;5096587;28;20533;-55
2022/08/06 04:59:02;;;;;;;2.57;0.90;;;16.20;99.90;;;;;;5096766;28;20439;-55
2022/08/06 05:01:30;;;;;;;1.60;1.00;;;16.10;99.90;;;;;;5096559;28;20477;-55
2022/08/06 05:03:57;;;;;;;1.90;0.90;;;16.10;99.90;;;;;;5096646;28;20457;-55
2022/08/06 05:06:30;;;;;;;1.80;1.10;;;16.10;99.90;;;;;;5096846;28;20560;-52
2022/08/06 05:09:02;;;;;;;2.00;1.50;;;16.10;99.90;;;;;;5096740;28;20423;-55
2022/08/06 05:11:34;;;;;;;3.33;1.27;;;16.20;99.90;;;;;;5096487;28;20942;-55
2022/08/06 05:14:05;;;;;;;1.40;1.03;;;16.10;99.90;;;;;;5096160;28;20461;-56
2022/08/06 05:16:39;;;;;;;1.50;1.03;;;16.10;99.90;;;;;;5096200;28;20448;-52
2022/08/06 05:19:12;;;;;;;2.80;1.03;;;16.00;99.90;;;;;;5095331;28;20483;-55
2022/08/06 05:21:41;;;;;;;2.80;1.43;;;16.10;99.90;;;;;;5095811;28;20426;-55
2022/08/06 05:24:08;;;;;;;1.30;0.90;;;16.10;99.90;;;;;;5095907;28;20448;-56
2022/08/06 05:26:35;;;;;;;2.23;1.10;;;16.10;99.90;;;;;;5096446;28;20829;-56
2022/08/06 05:29:03;;;;;;;3.17;1.40;;;16.10;99.90;;;;;;5096097;28;20544;-48
2022/08/06 05:31:31;;;;;;;3.93;1.60;;;16.10;99.90;;;;;;5096093;28;20533;-56
2022/08/06 05:33:59;;;;;;;7.37;1.97;;;16.00;99.90;;;;;;5095673;28;20463;-55
2022/08/06 05:36:26;;;;;;;1.30;1.00;;;15.90;99.90;;;;;;5095636;28;20473;-46
2022/08/06 05:38:53;;;;;;;2.13;1.13;;;16.00;99.90;;;;;;5095884;28;20441;-55
2022/08/06 05:41:20;;;;;;;1.70;1.00;;;15.90;99.90;;;;;;5095691;28;20469;-54
2022/08/06 05:43:47;;;;;;;1.40;1.07;;;15.90;99.90;;;;;;5095695;28;20422;-54
2022/08/06 05:46:16;;;;;;;4.77;1.53;;;15.90;99.90;;;;;;5095715;28;20777;-54
2022/08/06 05:48:48;;;;;;;3.03;1.33;;;15.90;99.90;;;;;;5095748;28;20558;-54
2022/08/06 05:51:29;;;;;;;1.60;1.30;;;16.00;99.90;;;;;;5095901;28;20430;-52
2022/08/06 05:54:04;;;;;;;3.63;1.03;;;15.90;99.90;;;;;;5095548;28;20484;-48
2022/08/06 05:56:38;;;;;;;5.73;1.37;;;16.10;99.90;;;;;;5095204;28;20437;-56
2022/08/06 05:59:08;;;;;;;2.57;1.40;;;16.20;99.90;;;;;;5095830;28;21018;-48
2022/08/06 06:01:36;;;;;;;1.33;1.23;;;16.20;99.90;;;;;;5096265;28;20914;-60
2022/08/06 06:04:04;;;;;;;1.47;1.10;;;16.20;99.90;;;;;;5096186;28;20552;-54
2022/08/06 06:06:33;;;;;;;1.20;1.00;;;16.30;99.90;;;;;;5095034;28;20437;-57
2022/08/06 06:09:00;;;;;;;1.70;1.03;;;16.30;99.90;;;;;;5093805;28;20454;-53
2022/08/06 06:11:27;;;;;;;1.83;1.10;;;16.50;99.90;;;;;;5093573;28;20795;-55
2022/08/06 06:13:55;;;;;;;1.37;1.10;;;16.60;99.90;;;;;;5093337;28;21036;-51
2022/08/06 06:16:28;;;;;;;1.70;1.10;;;16.70;99.90;;;;;;5093723;28;20968;-55
2022/08/06 06:19:10;;;;;;;4.63;1.20;;;16.80;99.90;;;;;;5093638;28;20454;-57
2022/08/06 06:21:46;;;;;;;3.47;1.10;;;16.80;99.90;;;;;;5094008;28;20711;-54
2022/08/06 06:24:19;;;;;;;2.53;0.93;;;16.90;99.90;;;;;;5074370;28;20430;-57
2022/08/06 06:26:53;;;;;;;3.63;1.63;;;16.90;99.90;;;;;;5091777;28;20472;-56
2022/08/06 06:29:33;;;;;;;3.73;1.30;;;17.20;99.90;;;;;;5095128;28;20482;-54
2022/08/06 06:32:06;;;;;;;1.87;0.80;;;17.50;99.90;;;;;;5094595;28;20468;-55
2022/08/06 06:34:46;;;;;;;2.10;1.37;;;17.40;99.90;;;;;;5094802;28;20437;-49
2022/08/06 06:37:20;;;;;;;3.53;1.37;;;17.30;99.90;;;;;;5094402;28;20465;-52
2022/08/06 06:39:55;;;;;;;1.20;0.90;;;17.20;99.90;;;;;;5094039;28;20430;-51
2022/08/06 06:42:28;;;;;;;2.40;1.20;;;17.20;99.90;;;;;;5093504;28;20537;-54
2022/08/06 06:45:03;;;;;;;2.50;1.20;;;17.10;99.90;;;;;;5094264;28;20440;-54
2022/08/06 06:47:36;;;;;;;1.43;1.20;;;17.10;99.90;;;;;;5094071;28;20464;-53
2022/08/06 06:50:11;;;;;;;3.00;1.37;;;17.10;99.90;;;;;;5093876;28;20477;-56
2022/08/06 06:52:41;;;;;;;1.30;0.97;;;17.10;99.90;;;;;;5093464;28;20465;-51
2022/08/06 06:55:12;;;;;;;1.93;1.00;;;17.10;99.90;;;;;;5094069;28;20517;-53
2022/08/06 06:57:44;;;;;;;2.80;1.10;;;17.30;99.90;;;;;;5093354;28;20460;-54
2022/08/06 07:00:13;;;;;;;1.60;1.30;;;17.30;99.90;;;;;;5093668;28;20461;-54
2022/08/06 07:02:42;;;;;;;3.20;1.37;;;17.30;99.90;;;;;;5093063;28;20502;-51
2022/08/06 07:05:10;;;;;;;2.73;1.10;;;17.30;99.90;;;;;;5093835;28;20474;-53
2022/08/06 07:07:41;;;;;;;1.70;0.90;;;17.30;99.90;;;;;;5095165;28;20511;-53
2022/08/06 07:10:11;;;;;;;2.80;1.67;;;17.20;99.90;;;;;;5095140;28;20441;-55
2022/08/06 07:12:42;;;;;;;1.20;1.00;;;17.30;99.90;;;;;;5093816;28;20499;-45
2022/08/06 07:15:11;;;;;;;1.60;0.90;;;17.40;99.90;;;;;;5094427;28;20528;-57
2022/08/06 07:17:39;;;;;;;2.10;1.17;;;17.40;99.90;;;;;;5095252;28;20534;-56
2022/08/06 07:20:08;;;;;;;2.03;1.60;;;17.50;99.90;;;;;;5093996;28;20445;-53
2022/08/06 07:22:37;;;;;;;1.97;1.30;;;17.60;99.90;;;;;;5093665;28;20456;-55
2022/08/06 07:25:08;;;;;;;1.60;1.20;;;17.70;99.90;;;;;;5093572;28;20426;-52
2022/08/06 07:27:46;;;;;;;3.83;1.10;;;17.80;99.90;;;;;;5094279;28;20429;-54
2022/08/06 07:30:14;;;;;;;2.20;1.13;;;17.90;99.90;;;;;;5093322;28;20969;-49
2022/08/06 07:32:43;;;;;;;1.33;0.90;;;18.10;99.90;;;;;;5093357;28;20788;-54
2022/08/06 07:35:11;;;;;;;3.30;1.93;;;18.30;99.90;;;;;;5093471;28;20571;-50
2022/08/06 07:37:42;;;;;;;1.67;1.10;;;18.50;99.90;;;;;;5093816;28;20475;-53
2022/08/06 07:40:19;;;;;;;2.47;1.17;;;18.60;99.90;;;;;;5094780;28;20433;-55
2022/08/06 07:42:49;;;;;;;3.07;1.10;;;18.60;99.90;;;;;;5094755;28;20440;-51
2022/08/06 07:45:18;;;;;;;1.83;1.30;;;18.80;99.90;;;;;;5094618;28;20438;-51
2022/08/06 07:47:47;;;;;;;3.10;2.77;;;19.00;99.90;;;;;;5094601;28;20469;-54
2022/08/06 07:50:15;;;;;;;4.53;1.40;;;19.20;99.90;;;;;;5094365;28;20438;-47
2022/08/06 07:52:43;;;;;;;3.20;1.27;;;19.60;99.90;;;;;;5090354;28;21139;-54
2022/08/06 07:55:13;;;;;;;1.63;1.10;;;19.90;99.90;;;;;;5095311;28;20439;-57
2022/08/06 07:57:42;;;;;;;2.33;1.10;;;20.70;99.90;;;;;;5095419;28;20453;-52
2022/08/06 08:00:11;;;;;;;1.33;0.83;;;22.30;99.90;;;;;;5095296;28;20469;-50
2022/08/06 08:02:38;;;;;;;1.40;1.10;;;23.60;99.90;;;;;;5095710;28;20442;-55
2022/08/06 08:07:50;;;;;;;2.73;1.77;;;24.60;99.90;;;;;;5062864;28;20457;-56
2022/08/06 08:10:21;;;;;;;5.23;2.03;;;24.60;99.90;;;;;;5095248;28;20433;-56
2022/08/06 08:12:48;;;;;;;3.57;1.23;;;25.60;98.10;;;;;;5098758;28;20565;-54
2022/08/06 08:15:15;;;;;;;2.27;1.57;;;26.20;96.00;;;;;;5097506;28;20770;-53
2022/08/06 08:17:42;;;;;;;1.60;1.47;;;27.30;91.40;;;;;;5100890;28;20560;-52
2022/08/06 08:20:11;;;;;;;2.30;1.10;;;27.90;89.00;;;;;;5098680;28;20502;-51
2022/08/06 08:22:40;;;;;;;2.70;1.10;;;29.00;81.30;;;;;;5097804;28;20556;-53
2022/08/06 08:25:08;;;;;;;3.23;1.13;;;30.00;73.60;;;;;;5097743;28;20449;-53
2022/08/06 08:27:36;;;;;;;2.10;1.03;;;30.70;66.60;;;;;;5097727;28;20770;-51
2022/08/06 08:30:03;;;;;;;2.70;1.30;;;30.10;62.80;;;;;;5097437;28;20461;-55
2022/08/06 08:32:30;;;;;;;2.50;0.90;;;28.90;62.10;;;;;;5098671;28;20441;-52
2022/08/06 08:34:57;;;;;;;2.07;1.10;;;28.10;63.50;;;;;;5099812;28;20497;-52
2022/08/06 08:37:24;;;;;;;3.00;1.53;;;27.20;65.20;;;;;;5098522;28;20449;-56
2022/08/06 08:39:51;;;;;;;1.70;1.00;;;27.00;67.50;;;;;;5097835;28;20477;-55
2022/08/06 08:42:20;;;;;;;2.40;1.00;;;27.80;66.80;;;;;;5097460;28;20507;-55
2022/08/06 08:44:50;;;;;;;1.93;1.00;;;29.00;62.70;;;;;;5097935;28;20441;-55
2022/08/06 08:47:20;;;;;;;1.57;1.10;;;30.20;60.80;;;;;;5097515;28;20445;-51
2022/08/06 08:49:51;;;;;;;2.80;1.10;;;31.10;58.90;;;;;;5097330;28;20445;-54
2022/08/06 08:52:21;;;;;;;3.83;1.30;;;30.80;58.20;;;;;;5097049;28;20429;-55
2022/08/06 08:54:52;;;;;;;1.50;1.20;;;30.40;58.40;;;;;;5097279;28;20480;-55
2022/08/06 08:57:20;;;;;;;2.33;1.00;;;29.80;58.00;;;;;;5096969;28;20469;-53
2022/08/06 08:59:48;;;;;;;3.40;1.17;;;28.60;59.00;;;;;;5097274;28;20748;-54
2022/08/06 09:02:15;;;;;;;2.13;0.97;;;27.40;60.20;;;;;;5098630;28;20457;-53
2022/08/06 09:04:43;;;;;;;1.70;1.00;;;26.20;62.20;;;;;;5099015;28;20444;-54
2022/08/06 09:07:10;;;;;;;3.20;1.17;;;25.30;65.10;;;;;;5095629;28;20438;-54
2022/08/06 09:09:38;;;;;;;1.50;0.97;;;25.60;66.20;;;;;;5099524;28;20441;-54
2022/08/06 09:12:07;;;;;;;1.23;1.13;;;26.80;64.50;;;;;;5098559;28;20536;-55
2022/08/06 09:14:34;;;;;;;2.43;1.30;;;28.00;61.90;;;;;;5098284;28;20485;-50
2022/08/06 09:17:03;;;;;;;2.30;1.60;;;29.20;59.20;;;;;;5098119;28;20461;-52
2022/08/06 09:19:30;;;;;;;1.37;0.97;;;30.10;56.60;;;;;;5096520;28;20461;-56
2022/08/06 09:21:57;;;;;;;1.23;1.13;;;30.90;54.50;;;;;;5096093;28;20510;-56
2022/08/06 09:24:24;;;;;;;1.40;1.10;;;31.70;52.50;;;;;;5096375;28;20504;-56
2022/08/06 09:27:05;;;;;;;1.40;1.10;;;32.10;51.30;;;;;;5095853;28;20452;-53
2022/08/06 09:29:33;;;;;;;2.17;0.97;;;32.80;49.00;;;;;;5096768;28;20453;-54
2022/08/06 09:32:04;;;;;;;1.20;0.97;;;33.10;47.50;;;;;;5097533;28;20936;-54
2022/08/06 09:34:36;;;;;;;1.10;0.80;;;31.90;46.50;;;;;;5099545;28;20461;-54
2022/08/06 09:37:02;;;;;;;1.33;1.10;;;30.10;48.10;;;;;;5100200;28;20465;-53
2022/08/06 09:39:39;;;;;;;3.20;1.10;;;28.70;50.90;;;;;;5100775;28;20457;-55
2022/08/06 09:42:07;;;;;;;2.20;1.10;;;28.90;52.30;;;;;;5097634;28;20467;-56
2022/08/06 09:44:34;;;;;;;1.23;0.87;;;29.50;50.30;;;;;;5096029;28;20774;-54
2022/08/06 09:47:03;;;;;;;1.53;1.10;;;30.20;49.30;;;;;;5096129;28;20465;-56
2022/08/06 09:49:44;;;;;;;1.27;1.10;;;30.50;48.60;;;;;;5096089;28;20454;-54
2022/08/06 09:52:16;;;;;;;1.20;0.80;;;30.90;46.90;;;;;;5096055;28;20814;-55
2022/08/06 09:54:42;;;;;;;10.53;4.10;;;30.90;47.10;;;;;;5096359;28;20470;-55
2022/08/06 09:57:10;;;;;;;25.87;23.03;;;31.40;47.70;;;;;;5095480;28;20473;-52
2022/08/06 09:59:44;;;;;;;2.80;1.57;;;31.80;47.70;;;;;;5098130;28;20437;-49
2022/08/06 10:02:17;;;;;;;1.67;1.20;;;31.70;46.70;;;;;;5097457;28;20460;-54
2022/08/06 10:04:44;;;;;;;2.13;1.10;;;30.80;47.00;;;;;;5097764;28;20470;-57
2022/08/06 10:07:12;;;;;;;1.70;1.00;;;29.70;48.60;;;;;;5098041;28;20521;-56
2022/08/06 10:09:53;;;;;;;3.73;1.67;;;28.30;50.50;;;;;;5097788;28;20497;-56
2022/08/06 10:12:22;;;;;;;2.10;1.63;;;28.10;52.50;;;;;;5097780;28;20468;-57
2022/08/06 10:14:49;;;;;;;1.50;1.20;;;28.90;51.60;;;;;;5075922;28;20478;-51
2022/08/06 10:17:19;;;;;;;6.50;1.20;;;28.80;51.20;;;;;;5095144;28;20437;-54
2022/08/06 10:19:49;;;;;;;2.83;1.10;;;28.90;51.40;;;;;;5095445;28;20430;-52
2022/08/06 10:22:17;;;;;;;2.40;1.10;;;29.10;51.00;;;;;;5095714;28;20449;-50
2022/08/06 10:24:46;;;;;;;2.80;1.13;;;28.80;50.70;;;;;;5095481;28;20446;-54
2022/08/06 10:27:15;;;;;;;1.83;1.30;;;28.00;51.90;;;;;;5095670;28;20469;-56
2022/08/06 10:30:27;;;;;;;1.80;1.10;;;27.30;53.40;;;;;;5095902;28;20453;-52
2022/08/06 10:33:01;;;;;;;1.77;1.33;;;27.20;55.20;;;;;;5090128;28;20593;-55
2022/08/06 10:35:28;;;;;;;1.30;1.10;;;27.60;54.10;;;;;;5095144;28;20507;-51
2022/08/06 10:37:59;;;;;;;1.83;1.10;;;28.10;52.80;;;;;;5095600;28;20480;-56
2022/08/06 10:40:27;;;;;;;3.63;1.53;;;28.30;52.60;;;;;;5097614;28;20422;-52
2022/08/06 10:42:54;;;;;;;1.30;1.20;;;27.80;53.30;;;;;;5096351;28;20468;-58
2022/08/06 10:45:21;;;;;;;2.27;1.30;;;27.10;54.00;;;;;;5096229;28;20436;-53
2022/08/06 10:47:48;;;;;;;2.30;1.30;;;26.50;55.40;;;;;;5096346;28;20453;-56
2022/08/06 10:50:16;;;;;;;1.30;1.03;;;26.40;55.40;;;;;;5095775;28;20441;-54
2022/08/06 10:52:46;;;;;;;1.73;1.10;;;26.20;54.90;;;;;;5095232;28;20443;-54
2022/08/06 10:55:13;;;;;;;1.63;1.20;;;26.20;54.50;;;;;;5095367;28;20524;-55
2022/08/06 10:57:40;;;;;;;2.00;1.10;;;26.50;55.40;;;;;;5095647;28;20473;-52
2022/08/06 11:00:09;;;;;;;3.10;1.33;;;27.00;53.90;;;;;;5095513;28;20472;-55
2022/08/06 11:03:12;;;;;;;3.03;1.40;;;27.20;53.70;;;;;;5094928;28;20468;-55
2022/08/06 11:05:42;;;;;;;1.80;1.00;;;27.20;53.00;;;;;;5094917;28;20465;-55
2022/08/06 11:08:36;;;;;;;3.20;1.90;;;26.80;53.30;;;;;;5095352;28;20904;-55
2022/08/06 11:11:38;;;;;;;2.77;1.20;;;26.20;54.40;;;;;;5094970;28;20553;-55
2022/08/06 11:14:10;;;;;;;1.73;1.07;;;26.10;55.50;;;;;;5081241;28;20564;-54
2022/08/06 11:16:38;;;;;;;4.40;1.47;;;26.40;55.90;;;;;;5094914;28;20961;-56
2022/08/06 11:19:07;;;;;;;2.10;1.37;;;26.80;55.70;;;;;;5095340;28;20565;-52
2022/08/06 11:21:43;;;;;;;3.00;1.27;;;27.10;55.20;;;;;;5095109;28;20442;-54
2022/08/06 11:24:11;;;;;;;2.43;1.10;;;27.30;53.50;;;;;;5094967;28;20433;-55
2022/08/06 11:26:40;;;;;;;1.40;1.27;;;27.50;53.60;;;;;;5094903;28;20445;-53
2022/08/06 11:29:08;;;;;;;1.73;1.40;;;27.60;53.00;;;;;;5095152;28;20450;-51
2022/08/06 11:31:46;;;;;;;2.30;1.47;;;27.60;52.80;;;;;;5094757;28;20537;-55
2022/08/06 11:34:22;;;;;;;2.67;1.20;;;27.20;53.10;;;;;;5095497;28;20475;-55
2022/08/06 11:36:56;;;;;;;1.27;0.90;;;26.60;53.10;;;;;;5094302;28;20552;-54
2022/08/06 11:39:24;;;;;;;2.07;1.30;;;26.20;52.70;;;;;;5094685;28;20470;-54
2022/08/06 11:41:56;;;;;;;1.30;1.00;;;25.90;53.50;;;;;;5094457;28;20430;-55
2022/08/06 11:44:25;;;;;;;1.13;1.00;;;25.80;54.20;;;;;;5095424;28;20466;-55
2022/08/06 11:47:19;;;;;;;1.20;0.80;;;25.90;54.40;;;;;;5098653;28;20441;-52
2022/08/06 11:49:47;;;;;;;4.47;1.10;;;25.90;53.60;;;;;;5098872;28;20483;-54
2022/08/06 11:52:43;;;;;;;1.20;1.00;;;25.50;54.00;;;;;;5098637;28;20441;-56
2022/08/06 11:55:13;;;;;;;1.20;0.80;;;25.30;54.00;;;;;;5098964;28;20484;-54
2022/08/06 11:57:40;;;;;;;3.90;1.00;;;25.00;54.80;;;;;;5098472;28;20934;-47
2022/08/06 12:00:23;;;;;;;1.30;0.93;;;24.90;55.50;;;;;;5098472;28;20819;-54
2022/08/06 12:02:57;;;;;;;1.37;0.90;;;24.80;55.40;;;;;;5098201;28;20426;-53
2022/08/06 12:09:12;;;;;;;1.40;0.93;;;25.00;55.60;;;;;;5010990;28;20540;-52
2022/08/06 12:11:38;;;;;;;1.80;1.30;;;24.90;54.90;;;;;;5016291;28;20452;-53
2022/08/06 12:14:26;;;;;;;5.80;2.10;;;24.80;54.00;;;;;;5016392;28;20540;-56
2022/08/06 12:16:53;;;;;;;1.50;1.00;;;24.60;54.20;;;;;;5016250;28;20945;-51
2022/08/06 12:19:20;;;;;;;2.40;1.37;;;24.50;55.20;;;;;;5016152;28;20898;-49
2022/08/06 12:21:53;;;;;;;5.50;1.00;;;24.40;55.90;;;;;;5016237;28;20451;-51
2022/08/06 12:24:26;;;;;;;1.80;1.20;;;24.30;56.40;;;;;;5016063;28;20497;-55
2022/08/06 12:26:54;;;;;;;2.60;2.00;;;24.30;56.10;;;;;;5016398;28;20508;-48
2022/08/06 12:29:21;;;;;;;2.40;1.20;;;24.10;56.60;;;;;;5016018;28;20473;-52
2022/08/06 12:31:48;;;;;;;1.77;1.33;;;23.90;56.80;;;;;;5015964;28;20472;-54
2022/08/06 12:34:25;;;;;;;1.63;1.13;;;23.70;57.00;;;;;;5016176;28;20496;-54
2022/08/06 12:36:58;;;;;;;2.27;1.20;;;23.60;57.60;;;;;;5015823;28;20456;-56
2022/08/06 12:40:23;;;;;;;1.53;1.10;;;23.40;57.40;;;;;;5016211;28;20445;-52
2022/08/06 12:42:25;;;;;;;6.47;1.40;;;23.30;57.20;;;;;;5015744;28;20911;-53
2022/08/06 12:44:52;;;;;;;1.63;1.00;;;23.20;57.40;;;;;;5057922;28;20437;-53
2022/08/06 12:47:18;;;;;;;1.50;1.20;;;23.30;56.30;;;;;;5098131;28;20459;-53
2022/08/06 12:49:45;;;;;;;3.33;1.00;;;23.50;56.90;;;;;;5098199;28;20521;-54
2022/08/06 12:52:13;;;;;;;2.20;1.00;;;23.40;54.80;;;;;;5097997;28;20437;-55
2022/08/06 12:54:41;;;;;;;1.60;0.90;;;23.70;54.60;;;;;;5097642;28;20491;-54
2022/08/06 12:57:08;;;;;;;1.30;1.00;;;23.80;54.50;;;;;;5096586;28;20469;-57
2022/08/06 12:59:36;;;;;;;2.80;1.20;;;23.90;54.20;;;;;;5097315;28;20460;-56
2022/08/06 13:02:03;;;;;;;1.20;1.00;;;24.20;54.40;;;;;;5097711;28;20552;-56
2022/08/06 13:04:30;;;;;;;5.30;4.17;;;24.40;54.50;;;;;;5097787;28;20937;-55
2022/08/06 13:06:57;;;;;;;1.60;1.10;;;24.70;54.80;;;;;;5097470;28;20441;-55
2022/08/06 13:09:34;;;;;;;1.80;1.03;;;24.90;52.90;;;;;;5097685;28;20430;-56